createdAt,value
2024-02-19T00:03:38.787Z,20.10
2024-02-19T00:11:47.639Z,20.33
2024-02-19T00:19:53.474Z,25.25
2024-02-19T00:28:02.025Z,24.05
2024-02-19T00:36:08.244Z,24.30
2024-02-19T00:44:16.944Z,22.67
2024-02-19T00:52:22.783Z,24.30
2024-02-19T01:00:31.113Z,26.30
2024-02-19T01:08:36.842Z,25.70
2024-02-19T01:16:45.131Z,24.52
2024-02-19T01:24:52.178Z,25.92
2024-02-19T01:33:01.369Z,25.98
2024-02-19T01:41:10.019Z,25.40
2024-02-19T01:49:19.418Z,26.65
2024-02-19T01:57:25.887Z,25.73
2024-02-19T02:05:34.736Z,25.50
2024-02-19T02:13:40.533Z,25.77
2024-02-19T02:21:50.173Z,26.40
2024-02-19T02:29:58.805Z,25.52
2024-02-19T02:38:05.230Z,27.38
2024-02-19T02:46:13.691Z,23.77
2024-02-19T02:54:19.531Z,25.08
2024-02-19T03:02:27.938Z,25.38
2024-02-19T03:10:33.622Z,25.92
2024-02-19T03:18:44.788Z,28.13
2024-02-19T03:26:50.879Z,28.67
2024-02-19T03:34:59.524Z,24.52
2024-02-19T03:43:05.418Z,24.45
2024-02-19T03:51:14.119Z,23.58
2024-02-19T03:59:20.070Z,26.20
2024-02-19T04:07:28.396Z,24.00
2024-02-19T04:15:34.461Z,23.10
2024-02-19T04:23:42.754Z,23.50
2024-02-19T04:31:48.423Z,23.88
2024-02-19T04:39:56.715Z,26.75
2024-02-19T04:48:02.702Z,30.00
2024-02-19T04:56:11.587Z,31.85
2024-02-19T05:04:17.252Z,28.13
2024-02-19T05:12:25.764Z,28.05
2024-02-19T05:20:31.582Z,28.17
2024-02-19T05:28:40.005Z,30.80
2024-02-19T05:36:45.713Z,30.35
2024-02-19T05:44:54.101Z,28.05
2024-02-19T05:52:59.892Z,24.83
2024-02-19T06:01:08.670Z,26.55
2024-02-19T06:09:14.487Z,27.05
2024-02-19T06:17:22.958Z,25.08
2024-02-19T06:25:28.696Z,23.30
2024-02-19T06:33:37.092Z,24.25
2024-02-19T06:41:45.736Z,24.88
2024-02-19T06:49:54.350Z,28.77
2024-02-19T06:58:00.213Z,27.40
2024-02-19T07:06:09.995Z,28.88
2024-02-19T07:14:15.716Z,31.63
2024-02-19T07:22:24.217Z,34.22
2024-02-19T07:30:30.152Z,28.45
2024-02-19T07:38:38.466Z,34.63
2024-02-19T07:46:43.986Z,31.70
2024-02-19T07:54:52.276Z,32.38
2024-02-19T08:02:58.046Z,29.73
2024-02-19T08:11:06.580Z,30.50
2024-02-19T08:19:12.589Z,27.45
2024-02-19T08:27:20.915Z,30.02
2024-02-19T08:35:26.882Z,34.13
2024-02-19T08:43:35.918Z,33.80
2024-02-19T08:51:41.694Z,37.55
2024-02-19T08:59:50.114Z,40.92
2024-02-19T09:07:58.133Z,41.30
2024-02-19T09:16:06.793Z,27.98
2024-02-19T09:24:14.772Z,44.17
2024-02-19T09:32:23.195Z,47.10
2024-02-19T09:40:35.295Z,50.33
2024-02-19T09:56:52.222Z,59.38
2024-02-19T10:05:00.953Z,30.60
2024-02-19T10:13:09.206Z,44.45
2024-02-19T10:21:17.644Z,25.13
2024-02-19T10:29:23.285Z,18.75
2024-02-19T10:37:32.219Z,35.03
2024-02-19T10:45:38.200Z,25.55
2024-02-19T10:53:46.557Z,22.17
2024-02-19T11:01:53.012Z,32.80
2024-02-19T11:10:02.639Z,18.77
2024-02-19T11:18:18.760Z,10.77
2024-02-19T11:26:27.295Z,46.92
2024-02-19T11:34:33.556Z,31.05
2024-02-19T11:42:42.574Z,38.47
2024-02-19T11:50:48.597Z,45.45
2024-02-19T11:58:57.242Z,13.45
2024-02-19T12:07:04.110Z,17.65
2024-02-19T12:15:14.632Z,36.40
2024-02-19T12:23:20.457Z,25.30
2024-02-19T12:31:29.005Z,8.63
2024-02-19T12:39:37.167Z,10.85
2024-02-19T12:47:45.433Z,16.20
2024-02-19T12:55:51.359Z,22.25
2024-02-19T13:03:59.793Z,28.80
2024-02-19T13:12:06.539Z,16.90
2024-02-19T13:20:16.949Z,9.55
2024-02-19T13:28:23.215Z,8.85
2024-02-19T13:36:31.899Z,7.70
2024-02-19T13:44:39.500Z,8.68
2024-02-19T13:52:48.220Z,9.77
2024-02-19T14:00:55.155Z,8.95
2024-02-19T14:09:04.068Z,9.93
2024-02-19T14:17:12.814Z,9.73
2024-02-19T14:25:22.210Z,11.32
2024-02-19T14:33:28.024Z,11.15
2024-02-19T14:41:36.483Z,11.88
2024-02-19T14:49:42.972Z,11.18
2024-02-19T14:57:52.384Z,13.50
2024-02-19T15:05:58.252Z,13.55
2024-02-19T15:14:06.522Z,10.60
2024-02-19T15:22:13.621Z,13.57
2024-02-19T15:30:21.997Z,12.00
2024-02-19T15:38:27.642Z,12.70
2024-02-19T15:46:36.976Z,12.95
2024-02-19T15:54:43.293Z,13.85
2024-02-19T16:02:51.824Z,13.65
2024-02-19T16:11:01.338Z,11.70
2024-02-19T16:19:09.764Z,11.52
2024-02-19T16:27:16.141Z,13.07
2024-02-19T16:35:24.518Z,15.52
2024-02-19T16:43:30.959Z,13.60
2024-02-19T16:51:46.643Z,14.30
2024-02-19T16:59:52.488Z,12.82
2024-02-19T17:08:04.048Z,13.48
2024-02-19T17:16:10.365Z,13.30
2024-02-19T17:24:18.868Z,13.75
2024-02-19T17:32:25.126Z,13.23
2024-02-19T17:40:34.243Z,15.13
2024-02-19T17:48:40.053Z,14.32
2024-02-19T17:56:49.467Z,16.65
2024-02-19T18:05:01.011Z,18.48
2024-02-19T18:13:10.291Z,19.20
2024-02-19T18:21:17.903Z,20.40
2024-02-19T18:29:26.473Z,19.38
2024-02-19T18:37:32.251Z,19.77
2024-02-19T18:45:42.768Z,21.10
2024-02-19T18:53:48.437Z,23.48
2024-02-19T19:01:56.996Z,22.55
2024-02-19T19:10:03.364Z,25.35
2024-02-19T19:18:15.350Z,28.67
2024-02-19T19:26:22.283Z,28.90
2024-02-19T19:34:30.768Z,26.42
2024-02-19T19:42:37.362Z,24.95
2024-02-19T19:50:45.861Z,24.50
2024-02-19T19:58:55.106Z,21.48
2024-02-19T20:07:05.033Z,22.30
2024-02-19T20:15:11.644Z,22.33
2024-02-19T20:23:20.109Z,22.42
2024-02-19T20:31:26.978Z,22.27
2024-02-19T20:39:35.595Z,23.98
2024-02-19T20:47:41.829Z,24.73
2024-02-19T20:55:50.052Z,23.75
2024-02-19T21:03:55.926Z,23.73
2024-02-19T21:12:04.286Z,26.38
2024-02-19T21:20:12.409Z,25.73
2024-02-19T21:28:21.046Z,29.15
2024-02-19T21:36:26.964Z,31.95
2024-02-19T21:44:35.374Z,35.22
2024-02-19T21:52:42.281Z,40.40
2024-02-19T22:00:51.523Z,38.38
2024-02-19T22:08:57.331Z,32.65
2024-02-19T22:17:05.793Z,32.75
2024-02-19T22:25:16.663Z,29.58
2024-02-19T22:33:26.218Z,28.50
2024-02-19T22:41:32.200Z,29.95
2024-02-19T22:49:41.407Z,29.45
2024-02-19T22:57:47.277Z,31.33
2024-02-19T23:05:56.061Z,29.80
2024-02-19T23:14:01.761Z,27.98
2024-02-19T23:22:10.229Z,30.33
2024-02-19T23:30:17.483Z,29.15
2024-02-19T23:38:27.132Z,28.10
2024-02-19T23:46:34.210Z,27.80
2024-02-19T23:54:44.073Z,28.92
